Time;durP1;ratioP1;P1;durP2;ratioP2;P2;SDS_P1;SDS_P2;PMS_P1;PMS_P2;Temp;Humidity;BMP_temperature;BMP_pressure;BME280_temperature;BME280_humidity;BME280_pressure;Samples;Min_cycle;Max_cycle;Signal;HPM_P1;HPM_P2
2022/10/28 00:01:32;;;;;;;43.55;21.17;;;8.70;1.00;;;-147.47;100.00;69272.31;5117760;28;30251;-75
2022/10/28 00:04:01;;;;;;;38.20;20.25;;;8.70;1.00;;;-147.47;100.00;69272.31;5130580;27;32140;-74
2022/10/28 00:06:34;;;;;;;39.22;18.85;;;8.70;1.00;;;-147.47;100.00;69272.31;5114944;28;31895;-73
2022/10/28 00:09:03;;;;;;;40.60;19.48;;;8.70;1.00;;;-147.47;100.00;69272.31;5115394;28;31397;-75
2022/10/28 00:11:35;;;;;;;35.45;21.30;;;8.70;1.00;;;-147.47;100.00;69272.31;5114459;28;32309;-76
2022/10/28 00:14:06;;;;;;;36.20;19.92;;;8.70;1.00;;;-147.47;100.00;69272.31;5114851;27;32405;-74
2022/10/28 00:16:37;;;;;;;38.55;20.95;;;8.70;1.00;;;-147.47;100.00;69272.31;5117505;28;32032;-73
2022/10/28 00:19:08;;;;;;;37.17;18.95;;;8.70;1.00;;;-147.47;100.00;69272.31;5117233;28;32172;-74
2022/10/28 00:21:38;;;;;;;34.53;19.52;;;8.60;1.00;;;-147.47;100.00;69272.31;5097144;28;32343;-75
2022/10/28 00:24:08;;;;;;;35.05;19.45;;;8.60;1.00;;;-147.47;100.00;69272.31;5096883;28;33418;-74
2022/10/28 00:26:41;;;;;;;35.50;19.52;;;8.60;1.00;;;-147.47;100.00;69272.31;5115905;28;31119;-74
2022/10/28 00:29:13;;;;;;;36.25;19.50;;;8.60;1.00;;;-147.47;100.00;69272.31;5104725;28;32653;-76
2022/10/28 00:31:42;;;;;;;38.03;20.20;;;8.50;1.00;;;-147.47;100.00;69272.31;5117382;28;31775;-73
2022/10/28 00:34:14;;;;;;;40.03;20.80;;;8.50;1.00;;;-147.47;100.00;69272.31;5117145;28;32719;-73
2022/10/28 00:36:45;;;;;;;41.15;20.92;;;8.50;1.00;;;-147.47;100.00;69272.31;5119059;28;31456;-74
2022/10/28 00:39:15;;;;;;;39.50;19.45;;;8.50;1.00;;;-147.47;100.00;69272.31;5119171;28;31854;-73
2022/10/28 00:41:48;;;;;;;38.85;19.63;;;8.50;1.00;;;-147.47;100.00;69272.31;5116672;28;31810;-74
2022/10/28 00:44:53;;;;;;;41.38;20.92;;;8.60;1.00;;;-147.47;100.00;69272.31;5116891;28;32488;-74
2022/10/28 00:47:36;;;;;;;35.47;18.52;;;8.60;1.00;;;-147.47;100.00;69272.31;5118982;28;32705;-74
2022/10/28 00:50:22;;;;;;;35.53;17.67;;;8.60;1.00;;;-147.47;100.00;69272.31;5118777;28;30181;-75
2022/10/28 00:52:56;;;;;;;35.03;18.07;;;8.60;99.90;;;-147.47;100.00;69272.31;5116823;28;31495;-75
2022/10/28 00:55:25;;;;;;;32.60;18.15;;;8.60;99.90;;;-147.47;100.00;69272.31;5116575;28;32597;-76
2022/10/28 00:57:57;;;;;;;33.63;18.55;;;8.60;99.90;;;-147.47;100.00;69272.31;5118750;28;31562;-76
2022/10/28 01:00:26;;;;;;;37.75;19.23;;;8.50;99.90;;;-147.47;100.00;69272.31;5116586;28;31692;-76
2022/10/28 01:02:56;;;;;;;34.33;18.02;;;8.50;99.90;;;-147.47;100.00;69272.31;5116688;28;31479;-75
2022/10/28 01:05:28;;;;;;;31.38;18.98;;;8.50;99.90;;;-147.47;100.00;69272.31;5116677;28;33874;-73
2022/10/28 01:08:01;;;;;;;32.85;18.48;;;8.50;99.90;;;-147.47;100.00;69272.31;5116554;28;32744;-74
2022/10/28 01:10:47;;;;;;;31.48;18.75;;;8.50;99.90;;;-147.47;100.00;69272.31;5118628;28;32158;-73
2022/10/28 01:13:32;;;;;;;33.92;18.13;;;8.50;99.90;;;-147.47;100.00;69272.31;5116521;28;31673;-73
2022/10/28 01:16:13;;;;;;;37.47;17.88;;;8.50;99.90;;;-147.47;100.00;69272.31;5116473;28;32925;-73
2022/10/28 01:18:54;;;;;;;33.85;19.13;;;8.50;99.90;;;-147.47;100.00;69272.31;5116468;28;31886;-73
2022/10/28 01:22:10;;;;;;;31.40;17.00;;;8.50;99.90;;;-147.47;100.00;69272.31;5116376;28;33040;-73
2022/10/28 01:25:08;;;;;;;35.65;18.15;;;8.60;99.90;;;-147.47;100.00;69272.31;5114832;28;31425;-75
2022/10/28 01:28:14;;;;;;;34.05;18.08;;;8.60;99.90;;;-147.47;100.00;69272.31;5117975;28;32050;-74
2022/10/28 01:31:15;;;;;;;39.13;18.63;;;8.60;99.90;;;-147.47;100.00;69272.31;5116131;28;32120;-73
2022/10/28 01:33:51;;;;;;;43.15;19.38;;;8.50;99.90;;;-147.47;100.00;69272.31;5116067;28;31660;-75
2022/10/28 01:36:31;;;;;;;39.38;20.40;;;8.50;99.90;;;-147.47;100.00;69272.31;5118297;28;29942;-74
2022/10/28 01:39:14;;;;;;;43.65;21.40;;;8.50;99.90;;;-147.47;100.00;69272.31;5116162;28;33809;-75
2022/10/28 01:41:52;;;;;;;43.67;20.98;;;8.50;99.90;;;-147.47;100.00;69272.31;5118070;28;31614;-75
2022/10/28 01:44:28;;;;;;;44.85;22.38;;;8.50;99.90;;;-147.47;100.00;69272.31;5115880;28;32907;-75
2022/10/28 01:47:07;;;;;;;48.95;22.40;;;8.50;99.90;;;-147.47;100.00;69272.31;5116122;28;31389;-75
2022/10/28 01:49:45;;;;;;;47.88;22.33;;;8.50;99.90;;;-147.47;100.00;69272.31;5116071;28;32421;-74
2022/10/28 01:52:19;;;;;;;51.45;23.00;;;8.60;99.90;;;-147.47;100.00;69272.31;5116117;28;32812;-74
2022/10/28 01:54:54;;;;;;;43.38;20.90;;;8.60;99.90;;;-147.47;100.00;69272.31;5115663;28;31992;-74
2022/10/28 01:57:26;;;;;;;49.08;22.52;;;8.60;99.90;;;-147.47;100.00;69272.31;5115541;28;31516;-74
2022/10/28 01:59:56;;;;;;;52.00;22.65;;;8.60;99.90;;;-147.47;100.00;69272.31;5115769;28;32945;-74
2022/10/28 02:02:30;;;;;;;44.83;21.90;;;8.70;99.90;;;-147.47;100.00;69272.31;5115755;28;33043;-75
2022/10/28 02:05:22;;;;;;;45.85;22.40;;;8.70;99.90;;;-147.47;100.00;69272.31;5131695;27;31668;-75
2022/10/28 02:07:56;;;;;;;46.92;22.45;;;8.60;1.00;;;-147.47;100.00;69272.31;5118659;28;31653;-75
2022/10/28 02:10:35;;;;;;;46.28;22.20;;;8.70;1.00;;;-147.47;100.00;69272.31;5115460;28;33454;-74
2022/10/28 02:13:10;;;;;;;44.13;22.05;;;8.70;1.00;;;-147.47;100.00;69272.31;5115660;28;31813;-72
2022/10/28 02:15:46;;;;;;;50.97;22.30;;;8.60;1.00;;;-147.47;100.00;69272.31;5115642;28;31636;-75
2022/10/28 02:18:31;;;;;;;53.97;23.92;;;8.70;1.00;;;-147.47;100.00;69272.31;5115596;28;31368;-74
2022/10/28 02:21:04;;;;;;;46.45;21.58;;;8.70;1.00;;;-147.47;100.00;69272.31;5115581;28;32542;-73
2022/10/28 02:23:45;;;;;;;59.60;23.27;;;8.70;1.00;;;-147.47;100.00;69272.31;5115540;28;33003;-76
2022/10/28 02:26:20;;;;;;;54.53;23.08;;;8.80;1.00;;;-147.47;100.00;69272.31;5115495;28;32653;-75
2022/10/28 02:28:57;;;;;;;60.70;23.97;;;8.70;1.00;;;-147.47;100.00;69272.31;5134652;27;30802;-73
2022/10/28 02:31:32;;;;;;;51.85;22.60;;;8.80;1.00;;;-147.47;100.00;69272.31;5115204;28;32949;-75
2022/10/28 02:34:09;;;;;;;52.85;22.88;;;8.80;1.00;;;-147.47;100.00;69272.31;5117448;28;32308;-72
2022/10/28 02:36:44;;;;;;;55.50;23.58;;;8.80;1.00;;;-147.47;100.00;69272.31;5133755;27;29919;-74
2022/10/28 02:39:13;;;;;;;57.45;23.48;;;8.90;1.00;;;-147.47;100.00;69272.31;5134269;27;31234;-72
2022/10/28 02:41:51;;;;;;;52.13;22.70;;;8.90;1.00;;;-147.47;100.00;69272.31;5100157;28;32447;-74
2022/10/28 02:44:26;;;;;;;54.40;23.70;;;8.90;1.00;;;-147.47;100.00;69272.31;5115082;28;31812;-75
2022/10/28 02:47:00;;;;;;;52.60;24.25;;;9.00;1.00;;;-147.47;100.00;69272.31;5134063;27;31823;-76
2022/10/28 02:49:32;;;;;;;57.92;24.48;;;9.00;1.00;;;-147.47;100.00;69272.31;5117180;28;31531;-74
2022/10/28 02:52:05;;;;;;;57.22;24.52;;;9.10;1.00;;;-147.47;100.00;69272.31;5117466;28;31702;-74
2022/10/28 02:54:40;;;;;;;48.70;22.75;;;9.10;1.00;;;-147.47;100.00;69272.31;5115663;28;32772;-72
2022/10/28 02:57:13;;;;;;;58.83;24.35;;;9.10;1.00;;;-147.47;100.00;69272.31;5115103;28;31622;-76
2022/10/28 02:59:42;;;;;;;63.25;23.60;;;9.10;1.00;;;-147.47;100.00;69272.31;5114846;28;31579;-77
2022/10/28 03:02:11;;;;;;;67.43;24.70;;;9.10;1.00;;;-147.47;100.00;69272.31;5114658;28;32545;-74
2022/10/28 03:04:41;;;;;;;61.97;25.75;;;9.10;1.00;;;-147.47;100.00;69272.31;5114679;28;33255;-76
2022/10/28 03:07:09;;;;;;;57.85;24.77;;;9.10;1.00;;;-147.47;100.00;69272.31;5114723;28;31645;-74
2022/10/28 03:09:38;;;;;;;61.72;25.70;;;9.20;1.00;;;-147.47;100.00;69272.31;5115030;28;32152;-73
2022/10/28 03:12:07;;;;;;;63.55;24.77;;;9.20;1.00;;;-147.47;100.00;69272.31;5116415;28;31878;-75
2022/10/28 03:14:35;;;;;;;57.88;23.73;;;9.20;1.00;;;-147.47;100.00;69272.31;5133914;27;30978;-73
2022/10/28 03:17:04;;;;;;;57.30;23.90;;;9.20;1.00;;;-147.47;100.00;69272.31;5115477;28;32469;-72
2022/10/28 03:19:32;;;;;;;55.20;23.63;;;9.30;1.00;;;-147.47;100.00;69272.31;5115454;28;31457;-73
2022/10/28 03:22:02;;;;;;;62.83;27.15;;;9.30;1.00;;;-147.47;100.00;69272.31;5114553;28;33335;-73
2022/10/28 03:24:31;;;;;;;60.65;24.38;;;9.30;1.00;;;-147.47;100.00;69272.31;5113220;28;32802;-73
2022/10/28 03:27:00;;;;;;;67.80;26.23;;;9.30;1.00;;;-147.47;100.00;69272.31;5130539;27;31744;-73
2022/10/28 03:29:29;;;;;;;66.00;25.45;;;9.40;1.00;;;-147.47;100.00;69272.31;5116397;28;30921;-71
2022/10/28 03:31:57;;;;;;;74.43;28.63;;;9.40;1.00;;;-147.47;100.00;69272.31;5114303;28;33444;-76
2022/10/28 03:34:26;;;;;;;71.45;28.98;;;9.40;1.00;;;-147.47;100.00;69272.31;5114677;28;31985;-76
2022/10/28 03:36:54;;;;;;;71.22;27.25;;;9.40;1.00;;;-147.47;100.00;69272.31;5115293;28;31674;-74
2022/10/28 03:39:24;;;;;;;67.88;26.33;;;9.40;1.00;;;-147.47;100.00;69272.31;5116912;28;31300;-75
2022/10/28 03:41:53;;;;;;;67.85;29.00;;;9.50;1.00;;;-147.47;100.00;69272.31;5114557;28;32593;-75
2022/10/28 03:44:21;;;;;;;78.28;28.63;;;9.50;1.00;;;-147.47;100.00;69272.31;5114252;28;31764;-75
2022/10/28 03:46:50;;;;;;;74.57;27.52;;;9.50;1.00;;;-147.47;100.00;69272.31;5114302;28;31371;-75
2022/10/28 03:49:18;;;;;;;71.50;26.33;;;9.30;1.00;;;-147.47;100.00;69272.31;5115485;27;31335;-76
2022/10/28 03:51:46;;;;;;;78.00;29.48;;;9.30;1.00;;;-147.47;100.00;69272.31;5116535;28;32285;-75
2022/10/28 03:54:15;;;;;;;69.90;28.05;;;9.30;1.00;;;-147.47;100.00;69272.31;5154529;27;31738;-76
2022/10/28 03:56:45;;;;;;;72.50;28.95;;;9.30;1.00;;;-147.47;100.00;69272.31;5117902;28;32378;-76
2022/10/28 03:59:14;;;;;;;69.05;28.10;;;9.40;1.00;;;-147.47;100.00;69272.31;5117963;28;31605;-77
2022/10/28 04:01:42;;;;;;;67.10;27.02;;;9.40;1.00;;;-147.47;100.00;69272.31;5151221;27;32441;-75
2022/10/28 04:04:11;;;;;;;63.95;27.45;;;9.40;1.00;;;-147.47;100.00;69272.31;5117706;28;31759;-76
2022/10/28 04:06:39;;;;;;;69.50;26.75;;;9.50;1.00;;;-147.47;100.00;69272.31;5117529;28;32180;-75
2022/10/28 04:09:07;;;;;;;80.57;29.45;;;9.50;1.00;;;-147.47;100.00;69272.31;5119591;28;31169;-76
2022/10/28 04:11:36;;;;;;;69.53;26.52;;;9.60;1.00;;;-147.47;100.00;69272.31;5117339;28;32548;-75
2022/10/28 04:14:06;;;;;;;70.93;27.42;;;9.60;1.00;;;-147.47;100.00;69272.31;5117466;28;33429;-76
2022/10/28 04:16:35;;;;;;;70.03;28.33;;;9.60;1.00;;;-147.47;100.00;69272.31;5117199;28;32241;-77
2022/10/28 04:19:03;;;;;;;75.45;27.33;;;9.70;1.00;;;-147.47;100.00;69272.31;5117119;28;31687;-75
2022/10/28 04:21:32;;;;;;;74.25;28.50;;;9.70;1.00;;;-147.47;100.00;69272.31;5117641;28;32625;-76
2022/10/28 04:24:01;;;;;;;68.63;28.20;;;9.70;1.00;;;-147.47;100.00;69272.31;5101641;28;30818;-75
2022/10/28 04:26:30;;;;;;;74.35;30.27;;;9.60;1.00;;;-147.47;100.00;69272.31;5116944;28;31711;-76
2022/10/28 04:28:59;;;;;;;70.47;27.98;;;9.50;1.00;;;-147.47;100.00;69272.31;5119027;28;30091;-77
2022/10/28 04:31:29;;;;;;;73.93;27.92;;;9.50;1.00;;;-147.47;100.00;69272.31;5117004;28;32770;-75
2022/10/28 04:33:57;;;;;;;64.15;27.83;;;9.60;1.00;;;-147.47;100.00;69272.31;5116419;28;32713;-76
2022/10/28 04:36:26;;;;;;;66.50;27.88;;;9.60;1.00;;;-147.47;100.00;69272.31;5115295;28;32698;-75
2022/10/28 04:38:54;;;;;;;65.72;28.20;;;9.60;1.00;;;-147.47;100.00;69272.31;5119043;28;30012;-76
2022/10/28 04:41:22;;;;;;;74.78;29.90;;;9.70;1.00;;;-147.47;100.00;69272.31;5117358;28;32535;-77
2022/10/28 04:43:51;;;;;;;79.30;30.52;;;9.80;1.00;;;-147.47;100.00;69272.31;5119283;28;29743;-76
2022/10/28 04:46:19;;;;;;;65.68;28.23;;;9.70;1.00;;;-147.47;100.00;69272.31;5116861;28;32537;-75
2022/10/28 04:48:49;;;;;;;66.63;28.08;;;9.70;1.00;;;-147.47;100.00;69272.31;5119103;28;30463;-75
2022/10/28 04:51:18;;;;;;;68.32;27.30;;;9.70;1.00;;;-147.47;100.00;69272.31;5101583;28;31354;-75
2022/10/28 04:53:46;;;;;;;72.15;30.20;;;9.80;1.00;;;-147.47;100.00;69272.31;5118918;28;32340;-78
2022/10/28 04:56:15;;;;;;;64.55;29.25;;;9.80;1.00;;;-147.47;100.00;69272.31;5117318;28;32858;-81
2022/10/28 04:58:43;;;;;;;75.93;32.05;;;9.90;1.00;;;-147.47;100.00;69272.31;5118940;28;30058;-75
2022/10/28 05:01:11;;;;;;;71.18;31.45;;;9.90;1.00;;;-147.47;100.00;69272.31;5116837;27;32640;-76
2022/10/28 05:03:40;;;;;;;78.82;31.67;;;10.00;1.00;;;-147.47;100.00;69272.31;5116758;28;31765;-76
2022/10/28 05:06:10;;;;;;;74.53;31.13;;;10.00;99.90;;;-147.47;100.00;69272.31;5116480;28;32144;-78
2022/10/28 05:08:38;;;;;;;72.40;29.73;;;10.10;99.90;;;-147.47;100.00;69272.31;5115553;28;31580;-78
2022/10/28 05:11:08;;;;;;;68.47;29.80;;;10.10;99.90;;;-147.47;100.00;69272.31;5116646;28;32466;-77
2022/10/28 05:13:36;;;;;;;71.47;31.65;;;10.10;99.90;;;-147.47;100.00;69272.31;5118677;28;30529;-77
2022/10/28 05:16:06;;;;;;;71.18;30.88;;;10.20;99.90;;;-147.47;100.00;69272.31;5116708;28;33084;-78
2022/10/28 05:18:34;;;;;;;73.00;30.75;;;10.20;99.90;;;-147.47;100.00;69272.31;5118615;28;31314;-77
2022/10/28 05:21:03;;;;;;;66.90;30.75;;;10.20;99.90;;;-147.47;100.00;69272.31;5117139;28;32499;-76
2022/10/28 05:23:32;;;;;;;76.80;41.97;;;10.20;99.90;;;-147.47;100.00;69272.31;5116553;28;31589;-73
2022/10/28 05:26:02;;;;;;;66.72;32.85;;;10.20;99.90;;;-147.47;100.00;69272.31;5116500;28;31785;-76
2022/10/28 05:28:30;;;;;;;66.90;29.75;;;10.20;99.90;;;-147.47;100.00;69272.31;5118449;28;31151;-75
2022/10/28 05:30:58;;;;;;;63.35;29.55;;;10.20;99.90;;;-147.47;100.00;69272.31;5116230;28;32604;-74
2022/10/28 05:33:27;;;;;;;54.72;26.00;;;10.20;99.90;;;-147.47;100.00;69272.31;5115917;28;31888;-76
2022/10/28 05:35:55;;;;;;;56.95;27.00;;;10.20;99.90;;;-147.47;100.00;69272.31;5115943;28;31518;-73
2022/10/28 05:38:24;;;;;;;53.75;26.73;;;10.20;99.90;;;-147.47;100.00;69272.31;5116294;28;31661;-74
2022/10/28 05:40:54;;;;;;;52.33;26.73;;;10.20;99.90;;;-147.47;100.00;69272.31;5118193;28;32260;-74
2022/10/28 05:43:22;;;;;;;55.53;26.02;;;10.20;99.90;;;-147.47;100.00;69272.31;5118146;28;31519;-74
2022/10/28 05:45:54;;;;;;;56.35;26.80;;;10.20;99.90;;;-147.47;100.00;69272.31;5115993;28;31688;-74
2022/10/28 05:48:23;;;;;;;56.65;27.98;;;10.30;99.90;;;-147.47;100.00;69272.31;5115981;28;31714;-74
2022/10/28 05:50:51;;;;;;;46.42;24.77;;;10.30;99.90;;;-147.47;100.00;69272.31;5115927;28;33274;-78
2022/10/28 05:53:20;;;;;;;50.63;24.77;;;10.40;99.90;;;-147.47;100.00;69272.31;5116063;28;31950;-77
2022/10/28 05:55:48;;;;;;;45.80;24.52;;;10.40;99.90;;;-147.47;100.00;69272.31;5115721;28;31583;-75
2022/10/28 05:58:18;;;;;;;46.92;24.83;;;10.40;99.90;;;-147.47;100.00;69272.31;5115864;28;31566;-74
2022/10/28 06:00:47;;;;;;;46.00;23.67;;;10.50;99.90;;;-147.47;100.00;69272.31;5115948;28;32331;-78
2022/10/28 06:03:15;;;;;;;43.80;23.35;;;10.60;99.90;;;-147.47;100.00;69272.31;5135225;27;31896;-76
2022/10/28 06:05:45;;;;;;;49.38;24.27;;;10.60;99.90;;;-147.47;100.00;69272.31;5117481;28;31713;-78
2022/10/28 06:08:14;;;;;;;47.65;25.20;;;10.60;99.90;;;-147.47;100.00;69272.31;5117768;28;29855;-76
2022/10/28 06:10:50;;;;;;;46.30;23.50;;;10.60;99.90;;;-147.47;100.00;69272.31;5117781;28;32253;-77
2022/10/28 06:13:21;;;;;;;44.72;22.52;;;10.50;99.90;;;-147.47;100.00;69272.31;5114826;28;32324;-75
2022/10/28 06:15:52;;;;;;;40.10;21.70;;;10.50;99.90;;;-147.47;100.00;69272.31;5115426;28;31983;-76
2022/10/28 06:18:21;;;;;;;41.45;22.65;;;10.50;99.90;;;-147.47;100.00;69272.31;5115626;28;32577;-77
2022/10/28 06:20:54;;;;;;;36.63;20.85;;;10.60;99.90;;;-147.47;100.00;69272.31;5117437;28;31981;-78
2022/10/28 06:23:23;;;;;;;39.95;21.33;;;10.60;99.90;;;-147.47;100.00;69272.31;5114268;28;32829;-78
2022/10/28 06:25:55;;;;;;;44.10;23.00;;;10.60;99.90;;;-147.47;100.00;69272.31;5115840;28;32814;-79
2022/10/28 06:28:26;;;;;;;50.22;24.42;;;10.60;99.90;;;-147.47;100.00;69272.31;5117692;28;31796;-75
2022/10/28 06:30:54;;;;;;;41.80;24.35;;;10.70;99.90;;;-147.47;100.00;69272.31;5114218;28;32592;-80
2022/10/28 06:33:23;;;;;;;43.30;23.88;;;10.70;99.90;;;-147.47;100.00;69272.31;5113955;27;31980;-79
2022/10/28 06:35:56;;;;;;;39.22;22.80;;;10.70;99.90;;;-147.47;100.00;69272.31;5105111;28;32005;-80
2022/10/28 06:38:25;;;;;;;39.83;22.77;;;10.80;99.90;;;-147.47;100.00;69272.31;5116225;28;31738;-78
2022/10/28 06:40:53;;;;;;;38.53;22.08;;;10.90;99.90;;;-147.47;100.00;69272.31;5134646;27;31480;-77
2022/10/28 06:43:22;;;;;;;35.97;22.75;;;10.90;99.90;;;-147.47;100.00;69272.31;5115038;28;32241;-77
2022/10/28 06:45:55;;;;;;;36.28;22.33;;;11.00;99.90;;;-147.47;100.00;69272.31;5116794;28;31116;-76
2022/10/28 06:48:24;;;;;;;36.20;22.17;;;11.10;99.90;;;-147.47;100.00;69272.31;5117014;28;31195;-78
2022/10/28 06:50:56;;;;;;;36.05;22.95;;;11.20;99.90;;;-147.47;100.00;69272.31;5116722;28;32582;-77
2022/10/28 06:53:26;;;;;;;35.28;21.90;;;11.30;99.90;;;-147.47;100.00;69272.31;5117874;28;31927;-77
2022/10/28 06:55:55;;;;;;;36.08;21.30;;;11.30;99.90;;;-147.47;100.00;69272.31;5116502;28;30853;-77
2022/10/28 06:58:25;;;;;;;35.42;20.25;;;11.40;99.90;;;-147.47;100.00;69272.31;5114828;28;31429;-77
2022/10/28 07:00:55;;;;;;;37.42;21.73;;;11.50;99.90;;;-147.47;100.00;69272.31;5114634;28;32438;-77
2022/10/28 07:03:23;;;;;;;38.63;21.88;;;11.50;99.90;;;-147.47;100.00;69272.31;5114620;27;31426;-79
2022/10/28 07:05:52;;;;;;;37.60;21.92;;;11.60;99.90;;;-147.47;100.00;69272.31;5114727;28;31532;-78
2022/10/28 07:08:21;;;;;;;37.67;22.17;;;11.50;99.90;;;-147.47;100.00;69272.31;5114145;27;31342;-79
2022/10/28 07:10:55;;;;;;;38.75;21.98;;;11.50;99.90;;;-147.47;100.00;69272.31;5116694;28;32531;-78
2022/10/28 07:13:24;;;;;;;35.97;21.80;;;11.50;99.90;;;-147.47;100.00;69272.31;5114651;28;32384;-79
2022/10/28 07:15:55;;;;;;;34.55;20.15;;;11.50;99.90;;;-147.47;100.00;69272.31;5116562;28;31700;-78
2022/10/28 07:18:25;;;;;;;35.28;20.95;;;11.40;99.90;;;-147.47;100.00;69272.31;5116416;28;31617;-77
2022/10/28 07:20:53;;;;;;;38.30;21.92;;;11.30;99.90;;;-147.47;100.00;69272.31;5112476;28;32188;-77
2022/10/28 07:23:22;;;;;;;35.88;21.02;;;11.20;99.90;;;-147.47;100.00;69272.31;5093457;28;32943;-79
2022/10/28 07:25:54;;;;;;;37.22;22.08;;;11.20;99.90;;;-147.47;100.00;69272.31;5098744;27;32526;-79
2022/10/28 07:28:24;;;;;;;40.47;22.00;;;11.30;99.90;;;-147.47;100.00;69272.31;5096072;28;31486;-78
2022/10/28 07:30:54;;;;;;;33.78;20.65;;;11.20;99.90;;;-147.47;100.00;69272.31;5093272;28;33543;-76
2022/10/28 07:33:23;;;;;;;33.75;20.70;;;11.20;99.90;;;-147.47;100.00;69272.31;5094044;28;31783;-76
2022/10/28 07:35:52;;;;;;;36.97;21.75;;;11.20;99.90;;;-147.47;100.00;69272.31;5093107;28;31620;-78
2022/10/28 07:38:21;;;;;;;35.78;21.25;;;11.30;99.90;;;-147.47;100.00;69272.31;5093066;28;31662;-77
2022/10/28 07:40:49;;;;;;;34.17;20.25;;;11.40;99.90;;;-147.47;100.00;69272.31;5093467;28;32381;-77
2022/10/28 07:43:18;;;;;;;32.75;20.60;;;11.50;99.90;;;-147.47;100.00;69272.31;5095052;28;31259;-77
2022/10/28 07:45:46;;;;;;;32.60;19.90;;;11.50;99.90;;;-147.47;100.00;69272.31;5094073;28;32288;-78
2022/10/28 07:48:16;;;;;;;31.55;20.00;;;11.60;99.90;;;-147.47;100.00;69272.31;5092317;28;32304;-80
2022/10/28 07:50:45;;;;;;;31.50;20.33;;;11.60;99.90;;;-147.47;100.00;69272.31;5093182;28;32736;-79
2022/10/28 07:53:13;;;;;;;32.90;19.25;;;11.70;99.90;;;-147.47;100.00;69272.31;5095705;28;32403;-78
2022/10/28 07:55:42;;;;;;;30.55;19.58;;;11.80;99.90;;;-147.47;100.00;69272.31;5092954;28;31656;-78
2022/10/28 07:58:10;;;;;;;28.65;18.92;;;11.70;99.90;;;-147.47;100.00;69272.31;5092022;28;31302;-77
2022/10/28 08:00:39;;;;;;;27.85;19.77;;;11.80;99.90;;;-147.47;100.00;69272.31;5093459;28;32571;-79
2022/10/28 08:03:08;;;;;;;30.73;19.90;;;11.90;99.90;;;-147.47;100.00;69272.31;5093373;28;32119;-77
2022/10/28 08:05:38;;;;;;;32.45;19.33;;;11.80;99.90;;;-147.47;100.00;69272.31;5112365;28;30680;-78
2022/10/28 08:08:07;;;;;;;30.30;19.48;;;11.70;99.90;;;-147.47;100.00;69272.31;5091785;28;32411;-78
2022/10/28 08:10:35;;;;;;;27.20;18.58;;;11.70;99.90;;;-147.47;100.00;69272.31;5092607;28;32473;-79
2022/10/28 08:13:05;;;;;;;29.15;19.27;;;11.70;99.90;;;-147.47;100.00;69272.31;5093802;28;32115;-77
2022/10/28 08:15:34;;;;;;;33.15;20.52;;;11.60;99.90;;;-147.47;100.00;69272.31;5093752;27;31896;-78
2022/10/28 08:18:02;;;;;;;32.05;19.20;;;11.60;99.90;;;-147.47;100.00;69272.31;5113035;27;31716;-78
2022/10/28 08:20:31;;;;;;;33.53;21.05;;;11.60;99.90;;;-147.47;100.00;69272.31;5114019;28;32513;-77
2022/10/28 08:23:01;;;;;;;30.35;19.40;;;11.50;99.90;;;-147.47;100.00;69272.31;5113786;28;32679;-78
2022/10/28 08:25:30;;;;;;;31.80;20.08;;;11.50;99.90;;;-147.47;100.00;69272.31;5113208;28;31379;-77
2022/10/28 08:27:58;;;;;;;31.85;19.33;;;11.50;99.90;;;-147.47;100.00;69272.31;5114919;28;31256;-79
2022/10/28 08:30:26;;;;;;;33.63;20.23;;;11.50;99.90;;;-147.47;100.00;69272.31;5115714;28;33042;-79
2022/10/28 08:32:56;;;;;;;29.10;17.92;;;11.20;99.90;;;-147.47;100.00;69272.31;5113706;28;32238;-78
2022/10/28 08:35:24;;;;;;;35.25;19.15;;;11.00;99.90;;;-147.47;100.00;69272.31;5114274;28;31691;-79
2022/10/28 08:37:52;;;;;;;34.55;21.65;;;11.10;99.90;;;-147.47;100.00;69272.31;5117293;28;31718;-78
2022/10/28 08:40:29;;;;;;;31.63;20.45;;;11.10;99.90;;;-147.47;100.00;69272.31;5117002;28;33227;-77
2022/10/28 08:43:06;;;;;;;35.55;20.33;;;11.20;99.90;;;-147.47;100.00;69272.31;5119011;28;31176;-77
2022/10/28 08:45:43;;;;;;;;;;;11.20;99.90;;;-147.47;100.00;69272.31;5117463;28;32499;-79
2022/10/28 08:48:22;;;;;;;33.47;19.77;;;11.40;99.90;;;-147.47;100.00;69272.31;5117122;28;31218;-78
2022/10/28 08:50:56;;;;;;;36.03;20.30;;;11.50;99.90;;;-147.47;100.00;69272.31;5118905;28;33120;-79
2022/10/28 08:53:29;;;;;;;34.30;20.58;;;11.60;99.90;;;-147.47;100.00;69272.31;5118071;28;32588;-79
2022/10/28 08:56:13;;;;;;;32.88;20.60;;;11.80;99.90;;;-147.47;100.00;69272.31;5117203;28;32148;-79
2022/10/28 08:58:45;;;;;;;33.17;20.88;;;11.80;99.90;;;-147.47;100.00;69272.31;5115622;28;31352;-78
2022/10/28 09:01:36;;;;;;;31.05;19.67;;;12.00;99.90;;;-147.47;100.00;69272.31;5117516;28;32206;-77
2022/10/28 09:04:16;;;;;;;31.90;20.33;;;11.80;99.90;;;-147.47;100.00;69272.31;5116961;28;31862;-79
2022/10/28 09:06:45;;;;;;;32.33;21.02;;;12.20;99.90;;;-147.47;100.00;69272.31;5119239;28;30993;-78
2022/10/28 09:09:21;;;;;;;30.20;19.40;;;12.40;90.70;;;-147.47;100.00;69272.31;5116949;28;31993;-77
2022/10/28 09:12:21;;;;;;;31.45;19.13;;;12.60;76.50;;;-147.47;100.00;69272.31;5118704;28;32584;-77
2022/10/28 09:15:25;;;;;;;31.13;19.95;;;12.80;67.20;;;-147.47;100.00;69272.31;5118866;28;32189;-78
2022/10/28 09:17:56;;;;;;;30.02;19.13;;;12.90;47.50;;;-147.47;100.00;69272.31;5110980;27;33943;-78
2022/10/28 09:20:42;;;;;;;29.10;18.60;;;13.10;44.60;;;-147.47;100.00;69272.31;5119085;28;31986;-77
2022/10/28 09:23:22;;;;;;;29.77;19.63;;;13.00;32.10;;;-147.47;100.00;69272.31;5117221;28;33182;-77
2022/10/28 09:26:10;;;;;;;29.58;19.48;;;12.80;28.70;;;-147.47;100.00;69272.31;5116862;28;32482;-77
2022/10/28 09:29:01;;;;;;;29.70;19.70;;;12.70;40.10;;;-147.47;100.00;69272.31;5119145;28;31660;-77
2022/10/28 09:31:36;;;;;;;29.15;19.52;;;12.80;49.00;;;-147.47;100.00;69272.31;5116790;28;32958;-77
2022/10/28 09:34:19;;;;;;;29.05;18.08;;;12.90;36.70;;;-147.47;100.00;69272.31;5153748;27;31992;-78
2022/10/28 09:36:54;;;;;;;28.50;19.30;;;12.70;33.00;;;-147.47;100.00;69272.31;5116927;28;31980;-77
2022/10/28 09:39:29;;;;;;;27.23;18.30;;;12.70;38.30;;;-147.47;100.00;69272.31;5118935;28;31968;-78
2022/10/28 09:42:02;;;;;;;31.30;19.48;;;12.90;45.10;;;-147.47;100.00;69272.31;5118391;28;31474;-79
2022/10/28 09:44:42;;;;;;;28.50;18.85;;;12.90;38.20;;;-147.47;100.00;69272.31;5115460;28;32418;-77
2022/10/28 09:47:18;;;;;;;29.63;18.98;;;12.90;35.30;;;-147.47;100.00;69272.31;5101436;28;30909;-77
2022/10/28 09:49:50;;;;;;;31.65;20.55;;;12.90;32.30;;;-147.47;100.00;69272.31;5116638;28;31621;-79
2022/10/28 09:52:25;;;;;;;25.65;17.60;;;13.00;28.20;;;-147.47;100.00;69272.31;5116715;28;32403;-78
2022/10/28 09:54:55;;;;;;;26.00;17.42;;;13.10;22.60;;;-147.47;100.00;69272.31;5116392;28;32110;-79
2022/10/28 09:57:31;;;;;;;25.77;17.13;;;13.10;21.80;;;-147.47;100.00;69272.31;5119510;28;30482;-77
2022/10/28 10:00:01;;;;;;;27.08;17.02;;;13.10;19.20;;;-147.47;100.00;69272.31;5117848;28;31520;-77
2022/10/28 10:02:39;;;;;;;29.75;16.65;;;13.10;17.50;;;-147.47;100.00;69272.31;5116596;28;31457;-77
2022/10/28 10:05:14;;;;;;;26.58;16.90;;;13.00;23.50;;;-147.47;100.00;69272.31;5101797;28;31961;-76
2022/10/28 10:07:48;;;;;;;23.95;16.38;;;12.80;27.70;;;-147.47;100.00;69272.31;5101278;28;30873;-75
2022/10/28 10:10:22;;;;;;;25.92;16.35;;;12.70;34.50;;;-147.47;100.00;69272.31;5116030;28;31835;-79
2022/10/28 10:12:55;;;;;;;26.75;17.15;;;12.70;39.30;;;-147.47;100.00;69272.31;5116022;28;32189;-79
2022/10/28 10:15:31;;;;;;;29.23;17.40;;;12.70;42.80;;;-147.47;100.00;69272.31;5115987;28;32583;-79